Time;durP1;ratioP1;P1;durP2;ratioP2;P2;SDS_P1;SDS_P2;PMS_P1;PMS_P2;Temp;Humidity;BMP_temperature;BMP_pressure;BME280_temperature;BME280_humidity;BME280_pressure;Samples;Min_cycle;Max_cycle;Signal;HPM_P1;HPM_P2
2021/05/09 00:02:19;;;;;;;;;;;;;;;;;;5082926;28;31957;-75
2021/05/09 00:04:44;;;;;;;;;;;;;;;;;;5084025;28;32875;-77
2021/05/09 00:07:11;;;;;;;;;;;;;;;;;;5085394;28;32554;-77
2021/05/09 00:09:37;;;;;;;;;;;;;;;;;;5084098;28;31514;-77
2021/05/09 00:12:03;;;;;;;;;;;;;;;;;;5083797;28;32343;-77
2021/05/09 00:14:28;;;;;;;;;;;;;;;;;;5098766;28;32896;-77
2021/05/09 00:16:54;;;;;;;;;;;;;;;;;;5083712;28;33420;-77
2021/05/09 00:19:19;;;;;;;;;;;;;;;;;;5082652;28;31870;-77
2021/05/09 00:21:45;;;;;;;;;;;;;;;;;;5082541;28;32850;-76
2021/05/09 00:24:10;;;;;;;;;;;;;;;;;;5083437;28;32905;-77
2021/05/09 00:26:36;;;;;;;;;;;;;;;;;;5082864;28;32515;-77
2021/05/09 00:29:01;;;;;;;;;;;;;;;;;;5082358;28;31776;-77
2021/05/09 00:31:27;;;;;;;;;;;;;;;;;;5083483;28;32197;-77
2021/05/09 00:33:52;;;;;;;;;;;;;;;;;;5083434;28;32918;-76
2021/05/09 00:36:18;;;;;;;;;;;;;;;;;;5081585;28;32247;-77
2021/05/09 00:38:43;;;;;;;;;;;;;;;;;;5081685;28;30736;-77
2021/05/09 00:41:08;;;;;;;;;;;;;;;;;;5082087;28;32469;-76
2021/05/09 00:43:34;;;;;;;;;;;;;;;;;;5083296;28;33885;-77
2021/05/09 00:45:59;;;;;;;;;;;;;;;;;;5083008;28;33466;-77
2021/05/09 00:48:25;;;;;;;;;;;;;;;;;;5082288;28;31834;-77
2021/05/09 00:50:50;;;;;;;;;;;;;;;;;;5082238;28;33266;-77
2021/05/09 00:53:16;;;;;;;;;;;;;;;;;;5083192;28;32632;-78
2021/05/09 00:55:41;;;;;;;;;;;;;;;;;;5082620;28;33585;-77
2021/05/09 00:58:07;;;;;;;;;;;;;;;;;;5082717;28;32624;-77
2021/05/09 01:00:33;;;;;;;;;;;;;;;;;;5082319;28;32439;-77
2021/05/09 01:03:00;;;;;;;;;;;;;;;;;;5081232;28;33874;-77
2021/05/09 01:05:25;;;;;;;;;;;;;;;;;;5082500;28;32742;-77
2021/05/09 01:07:51;;;;;;;;;;;;;;;;;;5081347;28;30138;-78
2021/05/09 01:10:16;;;;;;;;;;;;;;;;;;5081251;28;30484;-77
2021/05/09 01:12:42;;;;;;;;;;;;;;;;;;5082833;28;33729;-78
2021/05/09 01:15:07;;;;;;;;;;;;;;;;;;5081641;28;32624;-76
2021/05/09 01:17:33;;;;;;;;;;;;;;;;;;5080896;28;31628;-75
2021/05/09 01:19:58;;;;;;;;;;;;;;;;;;5082702;28;32367;-76
2021/05/09 01:22:24;;;;;;;;;;;;;;;;;;5097834;28;32785;-76
2021/05/09 01:24:50;;;;;;;;;;;;;;;;;;5080821;28;31458;-75
2021/05/09 01:27:16;;;;;;;;;;;;;;;;;;5080998;28;29880;-75
2021/05/09 01:29:41;;;;;;;;;;;;;;;;;;5080158;28;30675;-76
2021/05/09 01:32:07;;;;;;;;;;;;;;;;;;5082423;28;32554;-76
2021/05/09 01:34:36;;;;;;;;;;;;;;;;;;5080498;28;31851;-75
2021/05/09 01:37:02;;;;;;;;;;;;;;;;;;5080722;28;31072;-76
2021/05/09 01:39:28;;;;;;;;;;;;;;;;;;5080635;28;32307;-76
2021/05/09 01:41:54;;;;;;;;;;;;;;;;;;5097709;28;31619;-78
2021/05/09 01:44:19;;;;;;;;;;;;;;;;;;5080162;28;32832;-78
2021/05/09 01:46:45;;;;;;;;;;;;;;;;;;5080839;28;30626;-78
2021/05/09 01:49:10;;;;;;;;;;;;;;;;;;5082471;28;32401;-78
2021/05/09 01:51:36;;;;;;;;;;;;;;;;;;5080479;28;33422;-77
2021/05/09 01:54:01;;;;;;;;;;;;;;;;;;5080377;28;31711;-77
2021/05/09 01:56:27;;;;;;;;;;;;;;;;;;5080574;28;32075;-77
2021/05/09 01:58:52;;;;;;;;;;;;;;;;;;5080393;28;30980;-77
2021/05/09 02:01:23;;;;;;;;;;;;;;;;;;5080325;28;32282;-77
2021/05/09 02:03:57;;;;;;;;;;;;;;;;;;5080474;28;32479;-77
2021/05/09 02:06:25;;;;;;;;;;;;;;;;;;5082208;28;32379;-76
2021/05/09 02:08:50;;;;;;;;;;;;;;;;;;5080296;28;32468;-77
2021/05/09 02:11:29;;;;;;;;;;;;;;;;;;5081679;28;33832;-77
2021/05/09 02:13:59;;;;;;;;;;;;;;;;;;5083180;28;32864;-77
2021/05/09 02:16:28;;;;;;;;;;;;;;;;;;5084307;28;32692;-76
2021/05/09 02:18:53;;;;;;;;;;;;;;;;;;5083740;28;30402;-77
2021/05/09 02:21:23;;;;;;;;;;;;;;;;;;5083581;28;31632;-77
2021/05/09 02:23:49;;;;;;;;;;;;;;;;;;5083685;28;33577;-76
2021/05/09 02:26:14;;;;;;;;;;;;;;;;;;5085696;28;31879;-77
2021/05/09 02:28:42;;;;;;;;;;;;;;;;;;5085636;28;33047;-77
2021/05/09 02:31:08;;;;;;;;;;;;;;;;;;5083424;28;33922;-77
2021/05/09 02:33:33;;;;;;;;;;;;;;;;;;5085272;28;32520;-76
2021/05/09 02:35:59;;;;;;;;;;;;;;;;;;5083527;28;32969;-77
2021/05/09 02:38:25;;;;;;;;;;;;;;;;;;5085136;28;32365;-78
2021/05/09 02:40:50;;;;;;;;;;;;;;;;;;5082649;28;33275;-77
2021/05/09 02:43:16;;;;;;;;;;;;;;;;;;5082503;28;32793;-77
2021/05/09 02:45:41;;;;;;;;;;;;;;;;;;5083528;28;29950;-77
2021/05/09 02:48:07;;;;;;;;;;;;;;;;;;5083377;28;31291;-77
2021/05/09 02:50:32;;;;;;;;;;;;;;;;;;5085046;28;33860;-77
2021/05/09 02:52:58;;;;;;;;;;;;;;;;;;5082879;28;32681;-77
2021/05/09 02:55:23;;;;;;;;;;;;;;;;;;5085127;28;31998;-76
2021/05/09 02:57:49;;;;;;;;;;;;;;;;;;5082474;28;31009;-76
2021/05/09 03:00:15;;;;;;;;;;;;;;;;;;5082449;28;33867;-75
2021/05/09 03:02:40;;;;;;;;;;;;;;;;;;5083560;28;33322;-74
2021/05/09 03:05:10;;;;;;;;;;;;;;;;;;5082114;28;30897;-75
2021/05/09 03:07:35;;;;;;;;;;;;;;;;;;5083625;28;32627;-75
2021/05/09 03:10:01;;;;;;;;;;;;;;;;;;5099798;28;31830;-75
2021/05/09 03:12:28;;;;;;;;;;;;;;;;;;5082208;28;32345;-74
2021/05/09 03:14:54;;;;;;;;;;;;;;;;;;5084688;28;31902;-75
2021/05/09 03:17:19;;;;;;;;;;;;;;;;;;5083318;28;33275;-75
2021/05/09 03:19:45;;;;;;;;;;;;;;;;;;5083778;28;33826;-76
2021/05/09 03:22:10;;;;;;;;;;;;;;;;;;5084518;28;32567;-75
2021/05/09 03:24:36;;;;;;;;;;;;;;;;;;5082307;28;30490;-75
2021/05/09 03:27:01;;;;;;;;;;;;;;;;;;5084293;28;32512;-76
2021/05/09 03:29:27;;;;;;;;;;;;;;;;;;5084377;28;32914;-75
2021/05/09 03:31:52;;;;;;;;;;;;;;;;;;5084333;28;33072;-75
2021/05/09 03:34:18;;;;;;;;;;;;;;;;;;5083156;28;32006;-75
2021/05/09 03:36:43;;;;;;;;;;;;;;;;;;5084456;28;32322;-74
2021/05/09 03:39:09;;;;;;;;;;;;;;;;;;5083064;28;32933;-74
2021/05/09 03:41:34;;;;;;;;;;;;;;;;;;5083545;28;33445;-75
2021/05/09 03:44:00;;;;;;;;;;;;;;;;;;5083386;28;31909;-75
2021/05/09 03:46:25;;;;;;;;;;;;;;;;;;5083618;28;32430;-75
2021/05/09 03:48:51;;;;;;;;;;;;;;;;;;5084159;28;32770;-75
2021/05/09 03:51:16;;;;;;;;;;;;;;;;;;5082569;28;32698;-77
2021/05/09 03:53:42;;;;;;;;;;;;;;;;;;5084159;28;31748;-76
2021/05/09 03:56:07;;;;;;;;;;;;;;;;;;5082760;28;33237;-75
2021/05/09 03:58:32;;;;;;;;;;;;;;;;;;5083911;28;32966;-75
2021/05/09 04:00:58;;;;;;;;;;;;;;;;;;5082529;28;33526;-75
2021/05/09 04:03:23;;;;;;;;;;;;;;;;;;5083909;28;31761;-75
2021/05/09 04:05:51;;;;;;;;;;;;;;;;;;5099663;28;32312;-76
2021/05/09 04:08:18;;;;;;;;;;;;;;;;;;5083779;28;33539;-75
2021/05/09 04:10:43;;;;;;;;;;;;;;;;;;5083715;28;32469;-74
2021/05/09 04:13:09;;;;;;;;;;;;;;;;;;5081526;28;30327;-74
2021/05/09 04:15:34;;;;;;;;;;;;;;;;;;5100028;28;33270;-72
2021/05/09 04:18:00;;;;;;;;;;;;;;;;;;5084138;28;32829;-72
2021/05/09 04:20:25;;;;;;;;;;;;;;;;;;5082811;28;33436;-72
2021/05/09 04:22:51;;;;;;;;;;;;;;;;;;5083540;28;31727;-73
2021/05/09 04:25:16;;;;;;;;;;;;;;;;;;5083724;28;32976;-72
2021/05/09 04:27:42;;;;;;;;;;;;;;;;;;5083475;28;32892;-74
2021/05/09 04:30:07;;;;;;;;;;;;;;;;;;5083430;28;32668;-74
2021/05/09 04:32:32;;;;;;;;;;;;;;;;;;5083551;28;31862;-73
2021/05/09 04:34:58;;;;;;;;;;;;;;;;;;5082147;28;32955;-73
2021/05/09 04:37:23;;;;;;;;;;;;;;;;;;5083093;28;33850;-74
2021/05/09 04:39:49;;;;;;;;;;;;;;;;;;5082941;28;33396;-73
2021/05/09 04:42:14;;;;;;;;;;;;;;;;;;5083362;28;32758;-74
2021/05/09 04:44:40;;;;;;;;;;;;;;;;;;5082295;28;32345;-73
2021/05/09 04:47:05;;;;;;;;;;;;;;;;;;5082041;28;33831;-75
2021/05/09 04:49:31;;;;;;;;;;;;;;;;;;5082371;28;32800;-73
2021/05/09 04:51:56;;;;;;;;;;;;;;;;;;5083004;28;32030;-74
2021/05/09 04:54:25;;;;;;;;;;;;;;;;;;5082317;28;32261;-78
2021/05/09 04:56:50;;;;;;;;;;;;;;;;;;5082827;28;32889;-78
2021/05/09 04:59:15;;;;;;;;;;;;;;;;;;5083175;28;33489;-75
2021/05/09 05:01:41;;;;;;;;;;;;;;;;;;5082625;28;31855;-77
2021/05/09 05:04:06;;;;;;;;;;;;;;;;;;5082970;28;33012;-79
2021/05/09 05:06:32;;;;;;;;;;;;;;;;;;5082922;28;32691;-79
2021/05/09 05:08:59;;;;;;;;;;;;;;;;;;5081669;28;32198;-78
2021/05/09 05:11:24;;;;;;;;;;;;;;;;;;5082919;28;31982;-78
2021/05/09 05:13:50;;;;;;;;;;;;;;;;;;5082013;28;32277;-78
2021/05/09 05:16:15;;;;;;;;;;;;;;;;;;5082592;28;32760;-77
2021/05/09 05:18:41;;;;;;;;;;;;;;;;;;5081641;28;32527;-78
2021/05/09 05:21:06;;;;;;;;;;;;;;;;;;5081785;28;32750;-78
2021/05/09 05:23:32;;;;;;;;;;;;;;;;;;5082224;28;32371;-78
2021/05/09 05:25:57;;;;;;;;;;;;;;;;;;5082641;28;33870;-77
2021/05/09 05:28:23;;;;;;;;;;;;;;;;;;5081436;28;32664;-77
2021/05/09 05:30:49;;;;;;;;;;;;;;;;;;5082692;28;31854;-77
2021/05/09 05:33:14;;;;;;;;;;;;;;;;;;5081740;28;32205;-77
2021/05/09 05:35:40;;;;;;;;;;;;;;;;;;5081454;28;33019;-77
2021/05/09 05:38:05;;;;;;;;;;;;;;;;;;5082535;28;32633;-77
2021/05/09 05:40:30;;;;;;;;;;;;;;;;;;5082661;28;31807;-77
2021/05/09 05:42:56;;;;;;;;;;;;;;;;;;5081494;28;32364;-77
2021/05/09 05:45:21;;;;;;;;;;;;;;;;;;5082737;28;34359;-77
2021/05/09 05:47:47;;;;;;;;;;;;;;;;;;5084341;28;32567;-77
2021/05/09 05:50:12;;;;;;;;;;;;;;;;;;5086158;28;31810;-81
2021/05/09 05:52:38;;;;;;;;;;;;;;;;;;5084692;28;30916;-80
2021/05/09 05:55:04;;;;;;;;;;;;;;;;;;5086893;28;33446;-80
2021/05/09 05:57:29;;;;;;;;;;;;;;;;;;5086029;28;32551;-80
2021/05/09 05:59:55;;;;;;;;;;;;;;;;;;5085658;28;31799;-81
2021/05/09 06:02:21;;;;;;;;;;;;;;;;;;5086677;28;20064;-80
2021/05/09 06:04:47;;;;;;;;;;;;;;;;;;5085659;28;32554;-81
2021/05/09 06:07:12;;;;;;;;;;;;;;;;;;5085235;28;33455;-81
2021/05/09 06:09:38;;;;;;;;;;;;;;;;;;5083935;28;32137;-80
2021/05/09 06:12:03;;;;;;;;;;;;;;;;;;5085895;28;33062;-79
2021/05/09 06:14:29;;;;;;;;;;;;;;;;;;5085861;28;32865;-80
2021/05/09 06:16:54;;;;;;;;;;;;;;;;;;5100646;28;32389;-80
2021/05/09 06:19:20;;;;;;;;;;;;;;;;;;5085227;28;31637;-80
2021/05/09 06:21:45;;;;;;;;;;;;;;;;;;5085282;28;32333;-80
2021/05/09 06:24:11;;;;;;;;;;;;;;;;;;5085172;28;33774;-80
2021/05/09 06:26:36;;;;;;;;;;;;;;;;;;5085790;28;32590;-81
2021/05/09 06:29:02;;;;;;;;;;;;;;;;;;5083539;28;31830;-81
2021/05/09 06:31:27;;;;;;;;;;;;;;;;;;5086066;28;33312;-80
2021/05/09 06:33:53;;;;;;;;;;;;;;;;;;5083980;28;32742;-78
2021/05/09 06:36:18;;;;;;;;;;;;;;;;;;5085996;28;32635;-82
2021/05/09 06:38:44;;;;;;;;;;;;;;;;;;5091711;28;32050;-81
2021/05/09 06:41:09;;;;;;;;;;;;;;;;;;5083937;28;32641;-77
2021/05/09 06:43:35;;;;;;;;;;;;;;;;;;5085264;28;32950;-76
2021/05/09 06:46:01;;;;;;;;;;;;;;;;;;5100086;28;30695;-78
2021/05/09 06:48:27;;;;;;;;;;;;;;;;;;5084913;28;31806;-76
2021/05/09 06:50:52;;;;;;;;;;;;;;;;;;5084003;28;32884;-77
2021/05/09 06:53:18;;;;;;;;;;;;;;;;;;5084969;28;33828;-76
2021/05/09 06:55:45;;;;;;;;;;;;;;;;;;5084181;28;32566;-75
2021/05/09 06:58:11;;;;;;;;;;;;;;;;;;5082198;28;30606;-78
2021/05/09 07:00:37;;;;;;;;;;;;;;;;;;5084640;28;32410;-78
2021/05/09 07:03:02;;;;;;;;;;;;;;;;;;5084797;28;32877;-78
2021/05/09 07:05:28;;;;;;;;;;;;;;;;;;5083520;28;33106;-77
2021/05/09 07:07:53;;;;;;;;;;;;;;;;;;5084611;28;31940;-79
2021/05/09 07:10:19;;;;;;;;;;;;;;;;;;5084690;28;32467;-78
2021/05/09 07:12:44;;;;;;;;;;;;;;;;;;5083920;28;33868;-79
2021/05/09 07:15:11;;;;;;;;;;;;;;;;;;5084083;28;33640;-76
2021/05/09 07:17:36;;;;;;;;;;;;;;;;;;5084064;28;31910;-77
2021/05/09 07:20:02;;;;;;;;;;;;;;;;;;5084070;28;32420;-76
2021/05/09 07:22:32;;;;;;;;;;;;;;;;;;5084049;28;33850;-77
2021/05/09 07:24:58;;;;;;;;;;;;;;;;;;5084062;28;31996;-75
2021/05/09 07:27:23;;;;;;;;;;;;;;;;;;5084536;28;31834;-76
2021/05/09 07:29:49;;;;;;;;;;;;;;;;;;5084168;28;32895;-76
2021/05/09 07:32:14;;;;;;;;;;;;;;;;;;5084020;28;32516;-77
2021/05/09 07:34:40;;;;;;;;;;;;;;;;;;5083071;28;32477;-77
2021/05/09 07:37:05;;;;;;;;;;;;;;;;;;5083897;28;32511;-76
2021/05/09 07:39:31;;;;;;;;;;;;;;;;;;5083991;28;32346;-73
2021/05/09 07:41:56;;;;;;;;;;;;;;;;;;5082710;28;32766;-73
2021/05/09 07:44:21;;;;;;;;;;;;;;;;;;5083891;28;33085;-75
2021/05/09 07:46:47;;;;;;;;;;;;;;;;;;5083029;28;31530;-74
2021/05/09 07:49:18;;;;;;;;;;;;;;;;;;5080581;28;32157;-71
2021/05/09 07:51:44;;;;;;;;;;;;;;;;;;5082733;28;32661;-71
2021/05/09 07:54:09;;;;;;;;;;;;;;;;;;5084605;28;33472;-73
2021/05/09 07:56:37;;;;;;;;;;;;;;;;;;5083764;28;32338;-73
2021/05/09 07:59:02;;;;;;;;;;;;;;;;;;5083338;28;32303;-72
2021/05/09 08:01:28;;;;;;;;;;;;;;;;;;5083681;28;32923;-75
2021/05/09 08:03:53;;;;;;;;;;;;;;;;;;5083864;28;32552;-71
2021/05/09 08:06:18;;;;;;;;;;;;;;;;;;5083886;28;32255;-72
2021/05/09 08:08:44;;;;;;;;;;;;;;;;;;5083889;28;32419;-72
2021/05/09 08:11:09;;;;;;;;;;;;;;;;;;5097370;28;32887;-72
2021/05/09 08:13:35;;;;;;;;;;;;;;;;;;5082225;28;32472;-75
2021/05/09 08:16:00;;;;;;;;;;;;;;;;;;5083439;28;31843;-72
2021/05/09 08:18:26;;;;;;;;;;;;;;;;;;5082993;28;32304;-73
2021/05/09 08:20:51;;;;;;;;;;;;;;;;;;5082537;28;32937;-72
2021/05/09 08:23:17;;;;;;;;;;;;;;;;;;5084007;28;33056;-72
2021/05/09 08:25:42;;;;;;;;;;;;;;;;;;5102155;28;32046;-74
2021/05/09 08:28:08;;;;;;;;;;;;;;;;;;5084862;28;33438;-71
2021/05/09 08:30:33;;;;;;;;;;;;;;;;;;5083971;28;33005;-82
2021/05/09 08:32:59;;;;;;;;;;;;;;;;;;5083068;28;32449;-73
2021/05/09 08:35:24;;;;;;;;;;;;;;;;;;5080888;28;32784;-72
2021/05/09 08:37:49;;;;;;;;;;;;;;;;;;5083349;28;32347;-77
2021/05/09 08:40:15;;;;;;;;;;;;;;;;;;5083280;28;32989;-74
2021/05/09 08:42:40;;;;;;;;;;;;;;;;;;5081038;28;32520;-76
2021/05/09 08:45:06;;;;;;;;;;;;;;;;;;5081981;28;31686;-73
2021/05/09 08:47:38;;;;;;;;;;;;;;;;;;5082096;28;32307;-73
2021/05/09 08:50:03;;;;;;;;;;;;;;;;;;5083076;28;32938;-76
2021/05/09 08:52:29;;;;;;;;;;;;;;;;;;5083055;28;32517;-75
2021/05/09 08:54:54;;;;;;;;;;;;;;;;;;5083035;28;31833;-76
2021/05/09 08:57:20;;;;;;;;;;;;;;;;;;5081460;28;33268;-76
2021/05/09 08:59:45;;;;;;;;;;;;;;;;;;5081655;28;32770;-75
2021/05/09 09:02:10;;;;;;;;;;;;;;;;;;5081798;28;32556;-81
2021/05/09 09:04:36;;;;;;;;;;;;;;;;;;5082845;28;31816;-82
2021/05/09 09:07:01;;;;;;;;;;;;;;;;;;5098513;28;32864;-82
2021/05/09 09:09:27;;;;;;;;;;;;;;;;;;5081771;28;32845;-80
2021/05/09 09:11:53;;;;;;;;;;;;;;;;;;5081814;28;32474;-81
2021/05/09 09:14:18;;;;;;;;;;;;;;;;;;5083363;28;31916;-79
2021/05/09 09:16:44;;;;;;;;;;;;;;;;;;5082311;28;33186;-75
2021/05/09 09:19:09;;;;;;;;;;;;;;;;;;5082019;28;32804;-81
2021/05/09 09:21:35;;;;;;;;;;;;;;;;;;5081445;28;33575;-76
2021/05/09 09:24:04;;;;;;;;;;;;;;;;;;5082841;28;31980;-80
2021/05/09 09:26:29;;;;;;;;;;;;;;;;;;5082197;28;32289;-80
2021/05/09 09:28:55;;;;;;;;;;;;;;;;;;5081775;28;32771;-82
2021/05/09 09:31:20;;;;;;;;;;;;;;;;;;5098756;28;32530;-82
2021/05/09 09:33:46;;;;;;;;;;;;;;;;;;5081200;28;32901;-79
2021/05/09 09:36:11;;;;;;;;;;;;;;;;;;5082601;28;32522;-80
2021/05/09 09:38:37;;;;;;;;;;;;;;;;;;5097310;28;33026;-82
2021/05/09 09:41:02;;;;;;;;;;;;;;;;;;5082412;28;32657;-82
2021/05/09 09:43:27;;;;;;;;;;;;;;;;;;5081135;28;31850;-80
2021/05/09 09:45:53;;;;;;;;;;;;;;;;;;5082238;28;32455;-77
2021/05/09 09:48:18;;;;;;;;;;;;;;;;;;5081147;28;33983;-82
2021/05/09 09:50:45;;;;;;;;;;;;;;;;;;5081526;28;32426;-81
2021/05/09 09:53:11;;;;;;;;;;;;;;;;;;5081963;28;32798;-83
2021/05/09 09:55:36;;;;;;;;;;;;;;;;;;5080134;28;32003;-84
